createdAt,value
2023-01-17T00:00:45.072Z,0.50
2023-01-17T00:06:21.479Z,0.60
2023-01-17T00:11:25.278Z,0.52
2023-01-17T00:16:30.323Z,0.40
2023-01-17T00:21:51.891Z,0.40
2023-01-17T00:27:12.793Z,0.30
2023-01-17T00:32:16.793Z,0.30
2023-01-17T00:37:19.369Z,0.30
2023-01-17T00:42:22.027Z,0.73
2023-01-17T00:47:44.675Z,0.73
2023-01-17T00:53:06.147Z,0.40
2023-01-17T00:58:27.951Z,0.80
2023-01-17T01:03:50.669Z,0.70
2023-01-17T01:09:12.275Z,0.60
2023-01-17T01:14:33.496Z,0.75
2023-01-17T01:19:56.165Z,0.80
2023-01-17T01:25:17.515Z,1.60
2023-01-17T01:30:38.912Z,1.37
2023-01-17T01:35:44.023Z,1.30
2023-01-17T01:40:50.049Z,1.30
2023-01-17T01:45:57.010Z,1.27
2023-01-17T01:51:04.741Z,1.30
2023-01-17T01:56:13.897Z,1.08
2023-01-17T02:01:18.576Z,1.45
2023-01-17T02:06:31.404Z,0.68
2023-01-17T02:11:37.172Z,0.50
2023-01-17T02:16:55.033Z,0.85
2023-01-17T02:22:07.158Z,0.50
2023-01-17T02:27:25.331Z,0.95
2023-01-17T02:32:44.176Z,0.65
2023-01-17T02:37:57.593Z,1.17
2023-01-17T02:43:05.713Z,0.70
2023-01-17T02:48:14.150Z,0.60
2023-01-17T02:53:31.367Z,0.75
2023-01-17T02:58:55.184Z,0.70
2023-01-17T03:04:04.545Z,0.60
2023-01-17T03:09:09.877Z,0.60
2023-01-17T03:14:13.583Z,0.82
2023-01-17T03:19:18.695Z,0.50
2023-01-17T03:24:22.374Z,0.57
2023-01-17T03:29:26.148Z,0.80
2023-01-17T03:34:31.236Z,0.40
2023-01-17T03:39:34.989Z,0.65
2023-01-17T03:44:38.684Z,0.73
2023-01-17T03:49:43.765Z,0.70
2023-01-17T03:54:48.496Z,0.80
2023-01-17T03:59:52.213Z,0.50
2023-01-17T04:04:57.473Z,0.98
2023-01-17T04:10:01.180Z,0.85
2023-01-17T04:15:05.463Z,0.68
2023-01-17T04:20:17.331Z,1.00
2023-01-17T04:25:21.048Z,1.17
2023-01-17T04:30:24.918Z,1.33
2023-01-17T04:35:30.784Z,1.42
2023-01-17T04:40:34.513Z,2.47
2023-01-17T04:45:38.780Z,2.55
2023-01-17T04:50:43.831Z,2.97
2023-01-17T04:55:47.866Z,3.33
2023-01-17T05:00:51.816Z,4.65
2023-01-17T05:05:56.962Z,4.80
2023-01-17T05:11:00.693Z,5.10
2023-01-17T05:16:04.704Z,7.45
2023-01-17T05:21:09.888Z,6.72
2023-01-17T05:26:13.915Z,7.60
2023-01-17T05:31:17.873Z,7.07
2023-01-17T05:36:22.992Z,7.80
2023-01-17T05:41:26.741Z,8.32
2023-01-17T05:46:30.712Z,8.60
2023-01-17T05:51:37.840Z,9.93
2023-01-17T05:56:41.579Z,11.70
2023-01-17T06:01:46.137Z,12.05
2023-01-17T06:06:51.226Z,11.45
2023-01-17T06:11:54.919Z,12.07
2023-01-17T06:16:58.699Z,13.35
2023-01-17T06:22:04.700Z,11.57
2023-01-17T06:27:09.919Z,12.70
2023-01-17T06:32:14.205Z,11.15
2023-01-17T06:37:19.263Z,11.95
2023-01-17T06:42:23.552Z,11.80
2023-01-17T06:47:27.342Z,11.73
2023-01-17T06:52:32.506Z,12.52
2023-01-17T06:57:36.604Z,12.05
2023-01-17T07:02:40.328Z,12.00
2023-01-17T07:07:46.147Z,12.20
2023-01-17T07:12:49.915Z,12.43
2023-01-17T07:17:53.700Z,13.00
2023-01-17T07:22:58.853Z,11.70
2023-01-17T07:28:02.548Z,13.57
2023-01-17T07:33:06.437Z,12.52
2023-01-17T07:38:15.691Z,13.43
2023-01-17T07:43:19.447Z,11.75
2023-01-17T07:48:25.857Z,14.10
2023-01-17T07:53:33.008Z,12.27
2023-01-17T07:58:36.879Z,13.50
2023-01-17T08:03:40.845Z,13.88
2023-01-17T08:08:46.066Z,13.43
2023-01-17T08:13:50.015Z,14.00
2023-01-17T08:18:54.117Z,13.38
2023-01-17T08:23:59.400Z,15.43
2023-01-17T08:29:03.192Z,16.02
2023-01-17T08:34:06.941Z,14.77
2023-01-17T08:39:13.504Z,13.65
2023-01-17T08:44:17.316Z,14.32
2023-01-17T08:49:21.154Z,14.82
2023-01-17T08:54:26.274Z,14.25
2023-01-17T08:59:30.037Z,14.43
2023-01-17T09:04:33.909Z,14.45
2023-01-17T09:09:39.026Z,13.32
2023-01-17T09:14:42.742Z,13.40
2023-01-17T09:19:48.732Z,12.82
2023-01-17T09:24:54.285Z,13.00
2023-01-17T09:29:58.033Z,12.93
2023-01-17T09:35:01.808Z,14.70
2023-01-17T09:40:08.739Z,13.27
2023-01-17T09:45:18.973Z,13.45
2023-01-17T09:50:30.567Z,12.40
2023-01-17T09:55:43.961Z,13.57
2023-01-17T10:01:00.195Z,15.63
2023-01-17T10:06:17.367Z,11.57
2023-01-17T10:11:36.890Z,10.47
2023-01-17T10:16:50.278Z,11.55
2023-01-17T10:22:10.195Z,10.80
2023-01-17T10:27:23.171Z,10.65
2023-01-17T10:32:32.415Z,10.07
2023-01-17T10:37:41.428Z,9.85
2023-01-17T10:42:53.116Z,8.40
2023-01-17T10:48:04.398Z,9.55
2023-01-17T10:53:12.376Z,8.48
2023-01-17T10:58:17.593Z,9.30
2023-01-17T11:03:21.797Z,8.73
2023-01-17T11:08:25.677Z,8.43
2023-01-17T11:13:32.626Z,9.25
2023-01-17T11:18:38.829Z,8.40
2023-01-17T11:23:43.819Z,9.35
2023-01-17T11:28:49.071Z,9.38
2023-01-17T11:34:07.579Z,8.43
2023-01-17T11:39:27.388Z,8.45
2023-01-17T11:44:34.350Z,7.65
2023-01-17T11:49:38.222Z,7.05
2023-01-17T11:54:45.613Z,6.15
2023-01-17T11:59:52.583Z,6.43
2023-01-17T12:05:08.405Z,4.50
2023-01-17T12:10:20.447Z,4.43
2023-01-17T12:15:45.840Z,4.35
2023-01-17T12:21:00.405Z,4.78
2023-01-17T12:26:19.623Z,5.05
2023-01-17T12:31:33.543Z,4.95
2023-01-17T12:36:44.122Z,4.20
2023-01-17T12:42:00.504Z,5.00
2023-01-17T12:47:07.282Z,4.37
2023-01-17T12:52:22.576Z,4.47
2023-01-17T12:57:30.542Z,3.58
2023-01-17T13:02:40.119Z,3.25
2023-01-17T13:07:48.704Z,3.53
2023-01-17T13:12:54.938Z,3.28
2023-01-17T13:18:06.477Z,3.47
2023-01-17T13:23:17.016Z,3.55
2023-01-17T13:28:36.091Z,2.50
2023-01-17T13:33:58.906Z,2.45
2023-01-17T13:39:18.012Z,2.05
2023-01-17T13:44:28.251Z,1.70
2023-01-17T13:49:45.455Z,2.35
2023-01-17T13:54:53.982Z,2.10
2023-01-17T13:59:59.315Z,2.72
2023-01-17T14:05:16.212Z,2.58
2023-01-17T14:10:31.457Z,2.30
2023-01-17T14:15:48.061Z,3.22
2023-01-17T14:21:07.151Z,2.10
2023-01-17T14:26:22.176Z,2.65
2023-01-17T14:31:27.328Z,2.40
2023-01-17T14:36:34.570Z,3.08
2023-01-17T14:41:38.825Z,3.70
2023-01-17T14:46:49.178Z,3.37
2023-01-17T14:52:06.317Z,2.97
2023-01-17T14:57:25.589Z,3.05
2023-01-17T15:02:29.474Z,4.82
2023-01-17T15:07:34.741Z,3.55
2023-01-17T15:12:39.030Z,3.95
2023-01-17T15:17:42.864Z,3.45
2023-01-17T15:22:48.133Z,4.35
2023-01-17T15:27:52.389Z,3.40
2023-01-17T15:32:56.173Z,3.25
2023-01-17T15:38:01.990Z,4.93
2023-01-17T15:43:06.617Z,4.37
2023-01-17T15:48:34.731Z,4.72
2023-01-17T15:58:45.051Z,4.78
2023-01-17T16:03:55.503Z,5.30
2023-01-17T16:09:00.626Z,4.62
2023-01-17T16:14:07.522Z,4.95
2023-01-17T16:19:11.254Z,4.95
2023-01-17T16:24:16.735Z,6.70
2023-01-17T16:29:20.464Z,8.55
2023-01-17T16:34:24.843Z,11.43
2023-01-17T16:39:30.061Z,8.57
2023-01-17T16:44:34.630Z,7.45
2023-01-17T16:49:38.636Z,7.03
2023-01-17T16:54:43.730Z,8.32
2023-01-17T16:59:50.990Z,7.28
2023-01-17T17:04:54.934Z,5.90
2023-01-17T17:10:00.078Z,6.30
2023-01-17T17:15:03.998Z,6.12
2023-01-17T17:20:11.485Z,5.90
2023-01-17T17:25:16.994Z,7.03
2023-01-17T17:30:21.020Z,7.32
2023-01-17T17:35:24.782Z,7.43
2023-01-17T17:40:29.942Z,8.20
2023-01-17T17:45:33.752Z,8.20
2023-01-17T17:50:37.522Z,9.93
2023-01-17T17:55:42.650Z,10.20
2023-01-17T18:00:46.566Z,9.77
2023-01-17T18:05:50.353Z,9.15
2023-01-17T18:11:00.451Z,9.43
2023-01-17T18:16:07.575Z,9.85
2023-01-17T18:21:13.639Z,9.90
2023-01-17T18:26:20.842Z,9.95
2023-01-17T18:31:27.229Z,6.93
2023-01-17T18:36:31.098Z,8.85
2023-01-17T18:41:36.551Z,9.73
2023-01-17T18:46:42.190Z,10.05
2023-01-17T18:51:51.110Z,9.57
2023-01-17T18:56:57.039Z,10.95
2023-01-17T19:02:01.195Z,11.50
2023-01-17T19:07:05.193Z,11.10
2023-01-17T19:12:10.284Z,12.30
2023-01-17T19:17:14.303Z,12.23
2023-01-17T19:22:18.332Z,12.63
2023-01-17T19:27:23.827Z,11.77
2023-01-17T19:32:27.679Z,10.60
2023-01-17T19:37:31.872Z,11.85
2023-01-17T19:42:36.986Z,11.50
2023-01-17T19:47:41.243Z,12.43
2023-01-17T19:52:45.349Z,12.68
2023-01-17T19:57:50.880Z,13.73
2023-01-17T20:02:54.784Z,13.27
2023-01-17T20:07:58.977Z,11.15
2023-01-17T20:13:05.065Z,10.20
2023-01-17T20:18:08.937Z,9.00
2023-01-17T20:23:13.085Z,11.52
2023-01-17T20:28:18.184Z,10.20
2023-01-17T20:33:23.182Z,10.43
2023-01-17T20:38:30.664Z,9.25
2023-01-17T20:43:35.887Z,10.20
2023-01-17T20:48:45.653Z,10.25
2023-01-17T20:53:53.255Z,12.37
2023-01-17T20:58:58.536Z,14.00
2023-01-17T21:04:03.149Z,16.85
2023-01-17T21:09:08.651Z,15.32
2023-01-17T21:14:14.061Z,14.85
2023-01-17T21:19:17.974Z,14.87
2023-01-17T21:24:21.785Z,14.18
2023-01-17T21:29:29.080Z,14.52
2023-01-17T21:34:34.590Z,13.62
2023-01-17T21:39:39.553Z,19.30
2023-01-17T21:44:45.259Z,11.52
2023-01-17T21:49:48.951Z,11.20
2023-01-17T21:55:10.334Z,11.12
2023-01-17T22:00:16.738Z,9.73
2023-01-17T22:05:20.607Z,10.77
2023-01-17T22:10:24.324Z,9.93
2023-01-17T22:15:29.537Z,10.63
2023-01-17T22:20:33.381Z,10.95
2023-01-17T22:25:37.540Z,11.20
2023-01-17T22:30:42.663Z,10.00
2023-01-17T22:35:46.420Z,10.00
2023-01-17T22:40:50.636Z,10.73
2023-01-17T22:46:01.812Z,10.43
2023-01-17T22:51:07.806Z,10.48
2023-01-17T22:56:14.117Z,10.80
2023-01-17T23:01:20.982Z,11.68
2023-01-17T23:06:27.249Z,11.20
2023-01-17T23:11:43.800Z,10.52
2023-01-17T23:17:08.948Z,11.02
2023-01-17T23:22:19.185Z,10.77
2023-01-17T23:27:42.698Z,10.70
2023-01-17T23:32:50.185Z,11.02
2023-01-17T23:38:11.776Z,12.18
2023-01-17T23:43:24.677Z,11.85
2023-01-17T23:48:29.821Z,11.50
2023-01-17T23:53:33.776Z,11.77
2023-01-17T23:58:37.531Z,11.10
